createdAt,value
2018-09-01T00:01:03.572Z,21.50
2018-09-01T00:03:34.848Z,21.40
2018-09-01T00:06:06.431Z,21.40
2018-09-01T00:08:37.474Z,21.40
2018-09-01T00:11:09.123Z,21.30
2018-09-01T00:13:40.205Z,21.40
2018-09-01T00:16:11.384Z,21.30
2018-09-01T00:18:42.619Z,21.30
2018-09-01T00:21:14.056Z,21.30
2018-09-01T00:23:45.295Z,21.20
2018-09-01T00:26:17.044Z,21.30
2018-09-01T00:28:48.149Z,21.20
2018-09-01T00:31:19.351Z,21.20
2018-09-01T00:33:50.683Z,21.20
2018-09-01T00:36:22.187Z,21.10
2018-09-01T00:38:58.400Z,21.10
2018-09-01T00:41:29.610Z,21.10
2018-09-01T00:44:01.300Z,21.10
2018-09-01T00:46:33.676Z,21.10
2018-09-01T00:49:04.946Z,21.00
2018-09-01T00:51:35.918Z,21.00
2018-09-01T00:54:07.208Z,21.00
2018-09-01T00:56:39.111Z,21.00
2018-09-01T00:59:10.119Z,21.00
2018-09-01T01:01:41.171Z,20.90
2018-09-01T01:04:12.771Z,20.90
2018-09-01T01:06:44.101Z,20.90
2018-09-01T01:09:15.301Z,20.80
2018-09-01T01:11:46.454Z,20.80
2018-09-01T01:14:17.648Z,20.70
2018-09-01T01:16:48.856Z,20.70
2018-09-01T01:19:20.040Z,20.70
2018-09-01T01:21:51.188Z,20.60
2018-09-01T01:24:22.391Z,20.50
2018-09-01T01:26:56.350Z,20.50
2018-09-01T01:29:27.587Z,20.40
2018-09-01T01:31:59.329Z,20.40
2018-09-01T01:34:30.494Z,20.30
2018-09-01T01:37:01.690Z,20.40
2018-09-01T01:39:32.938Z,20.30
2018-09-01T01:42:04.318Z,20.20
2018-09-01T01:44:35.521Z,20.20
2018-09-01T01:47:06.707Z,20.20
2018-09-01T01:49:38.128Z,20.10
2018-09-01T01:52:09.262Z,20.10
2018-09-01T01:54:40.925Z,20.10
2018-09-01T01:57:13.327Z,20.10
2018-09-01T01:59:44.600Z,20.10
2018-09-01T02:02:15.699Z,20.10
2018-09-01T02:04:46.972Z,20.10
2018-09-01T02:07:18.179Z,20.00
2018-09-01T02:09:49.258Z,20.00
2018-09-01T02:12:20.351Z,19.90
2018-09-01T02:14:51.525Z,19.90
2018-09-01T02:17:22.744Z,19.90
2018-09-01T02:19:53.783Z,19.80
2018-09-01T02:22:24.936Z,19.70
2018-09-01T02:24:56.136Z,19.60
2018-09-01T02:27:27.471Z,19.50
2018-09-01T02:29:58.884Z,19.50
2018-09-01T02:32:29.915Z,19.40
2018-09-01T02:35:01.021Z,19.30
2018-09-01T02:37:32.099Z,19.30
2018-09-01T02:40:03.479Z,19.30
2018-09-01T02:42:35.516Z,19.20
2018-09-01T02:45:07.491Z,19.20
2018-09-01T02:47:38.802Z,19.10
2018-09-01T02:50:09.880Z,19.10
2018-09-01T02:52:41.015Z,19.00
2018-09-01T02:55:12.694Z,19.00
2018-09-01T02:57:43.981Z,19.00
2018-09-01T03:00:19.885Z,18.90
2018-09-01T03:02:51.079Z,18.90
2018-09-01T03:05:22.384Z,19.00
2018-09-01T03:07:54.312Z,18.90
2018-09-01T03:10:26.149Z,18.80
2018-09-01T03:12:57.453Z,18.70
2018-09-01T03:15:28.903Z,18.80
2018-09-01T03:17:59.998Z,18.80
2018-09-01T03:20:31.039Z,18.80
2018-09-01T03:23:02.391Z,18.80
2018-09-01T03:25:33.716Z,18.80
2018-09-01T03:28:04.977Z,18.80
2018-09-01T03:30:35.971Z,18.80
2018-09-01T03:33:07.459Z,18.80
2018-09-01T03:35:38.755Z,18.70
2018-09-01T03:38:09.964Z,18.70
2018-09-01T03:40:41.156Z,18.80
2018-09-01T03:43:12.496Z,18.70
2018-09-01T03:45:43.703Z,18.70
2018-09-01T03:48:14.853Z,18.60
2018-09-01T03:50:46.367Z,18.50
2018-09-01T03:53:17.550Z,18.50
2018-09-01T03:55:49.303Z,18.40
2018-09-01T03:58:20.383Z,18.40
2018-09-01T04:00:51.753Z,18.30
2018-09-01T04:03:22.996Z,18.30
2018-09-01T04:05:54.228Z,18.30
2018-09-01T04:08:25.387Z,18.30
2018-09-01T04:10:56.431Z,18.30
2018-09-01T04:13:27.788Z,18.20
2018-09-01T04:15:58.970Z,18.30
2018-09-01T04:18:30.628Z,18.20
2018-09-01T04:21:01.755Z,18.20
2018-09-01T04:23:32.950Z,18.20
2018-09-01T04:26:04.403Z,18.20
2018-09-01T04:28:35.736Z,18.20
2018-09-01T04:31:07.116Z,18.20
2018-09-01T04:33:39.584Z,18.20
2018-09-01T04:36:10.887Z,18.20
2018-09-01T04:38:41.883Z,18.20
2018-09-01T04:41:12.975Z,18.20
2018-09-01T04:43:44.358Z,18.10
2018-09-01T04:46:15.631Z,18.10
2018-09-01T04:48:46.852Z,18.20
2018-09-01T04:51:19.010Z,18.30
2018-09-01T04:53:50.192Z,18.30
2018-09-01T04:56:21.206Z,18.20
2018-09-01T04:58:52.366Z,18.30
2018-09-01T05:01:23.775Z,18.30
2018-09-01T05:03:54.948Z,18.40
2018-09-01T05:06:25.987Z,18.40
2018-09-01T05:08:57.386Z,18.50
2018-09-01T05:11:28.850Z,18.50
2018-09-01T05:14:00.104Z,18.50
2018-09-01T05:16:31.416Z,18.70
2018-09-01T05:19:02.846Z,18.60
2018-09-01T05:21:34.389Z,18.60
2018-09-01T05:24:06.023Z,18.50
2018-09-01T05:26:37.088Z,18.40
2018-09-01T05:29:08.535Z,18.40
2018-09-01T05:31:40.255Z,18.40
2018-09-01T05:34:11.978Z,18.30
2018-09-01T05:36:43.272Z,18.30
2018-09-01T05:39:14.409Z,18.30
2018-09-01T05:41:45.792Z,18.30
2018-09-01T05:44:17.007Z,18.30
2018-09-01T05:46:47.973Z,18.40
2018-09-01T05:49:18.943Z,18.30
2018-09-01T05:51:49.983Z,18.30
2018-09-01T05:54:20.926Z,18.20
2018-09-01T05:56:52.451Z,18.30
2018-09-01T05:59:23.903Z,18.30
2018-09-01T06:01:55.787Z,18.30
2018-09-01T06:04:27.097Z,18.30
2018-09-01T06:06:58.265Z,18.20
2018-09-01T06:09:29.301Z,18.10
2018-09-01T06:12:00.650Z,18.10
2018-09-01T06:14:31.860Z,18.20
2018-09-01T06:17:03.103Z,18.20
2018-09-01T06:19:34.260Z,18.10
2018-09-01T06:22:05.289Z,18.00
2018-09-01T06:24:36.903Z,18.00
2018-09-01T06:27:13.109Z,18.10
2018-09-01T06:29:44.459Z,18.10
2018-09-01T06:32:15.868Z,18.20
2018-09-01T06:34:47.092Z,18.30
2018-09-01T06:37:18.092Z,18.30
2018-09-01T06:39:49.280Z,18.40
2018-09-01T06:42:20.322Z,18.60
2018-09-01T06:44:51.694Z,18.60
2018-09-01T06:47:23.045Z,18.60
2018-09-01T06:49:54.231Z,18.60
2018-09-01T06:52:25.455Z,18.60
2018-09-01T06:54:56.920Z,18.70
2018-09-01T06:57:28.209Z,18.60
2018-09-01T06:59:59.223Z,18.70
2018-09-01T07:02:30.463Z,18.70
2018-09-01T07:05:01.821Z,18.70
2018-09-01T07:07:33.220Z,18.80
2018-09-01T07:10:04.606Z,18.80
2018-09-01T07:12:35.960Z,18.80
2018-09-01T07:15:07.309Z,18.90
2018-09-01T07:17:38.335Z,19.00
2018-09-01T07:20:09.783Z,18.90
2018-09-01T07:22:41.599Z,19.00
2018-09-01T07:25:12.944Z,19.10
2018-09-01T07:27:44.115Z,19.10
2018-09-01T07:30:15.176Z,19.20
2018-09-01T07:32:46.437Z,19.20
2018-09-01T07:35:17.487Z,19.30
2018-09-01T07:37:48.475Z,19.50
2018-09-01T07:40:19.669Z,19.60
2018-09-01T07:42:50.974Z,19.50
2018-09-01T07:45:22.571Z,19.70
2018-09-01T07:47:54.059Z,20.00
2018-09-01T07:50:25.442Z,19.80
2018-09-01T07:52:56.872Z,20.00
2018-09-01T07:55:28.396Z,20.00
2018-09-01T07:57:59.434Z,19.90
2018-09-01T08:00:31.582Z,20.50
2018-09-01T08:03:02.906Z,20.30
2018-09-01T08:05:34.852Z,20.30
2018-09-01T08:08:06.707Z,20.50
2018-09-01T08:10:37.840Z,21.10
2018-09-01T08:13:09.103Z,21.00
2018-09-01T08:15:40.308Z,20.90
2018-09-01T08:18:11.532Z,21.10
2018-09-01T08:20:43.327Z,22.00
2018-09-01T08:23:14.581Z,21.80
2018-09-01T08:25:45.867Z,21.40
2018-09-01T08:28:17.179Z,21.30
2018-09-01T08:30:48.399Z,21.40
2018-09-01T08:33:19.636Z,21.80
2018-09-01T08:35:51.274Z,21.90
2018-09-01T08:38:22.604Z,22.60
2018-09-01T08:40:53.826Z,23.50
2018-09-01T08:43:24.963Z,22.80
2018-09-01T08:45:56.132Z,22.90
2018-09-01T08:48:27.324Z,22.60
2018-09-01T08:50:58.788Z,22.70
2018-09-01T08:53:30.012Z,22.90
2018-09-01T08:56:01.323Z,23.10
2018-09-01T08:58:33.031Z,23.10
2018-09-01T09:01:04.101Z,23.90
2018-09-01T09:03:35.447Z,23.80
2018-09-01T09:06:06.664Z,23.70
2018-09-01T09:08:37.837Z,24.00
2018-09-01T09:11:09.399Z,23.60
2018-09-01T09:13:40.971Z,23.40
2018-09-01T09:16:12.498Z,24.30
2018-09-01T09:18:43.658Z,24.10
2018-09-01T09:21:15.002Z,24.60
2018-09-01T09:23:46.037Z,24.90
2018-09-01T09:26:17.445Z,25.20
2018-09-01T09:28:48.851Z,25.50
2018-09-01T09:31:20.945Z,25.60
2018-09-01T09:33:52.004Z,25.80
2018-09-01T09:36:23.135Z,26.10
2018-09-01T09:38:54.297Z,25.90
2018-09-01T09:41:25.580Z,25.40
2018-09-01T09:43:56.875Z,25.10
2018-09-01T09:46:27.869Z,26.00
2018-09-01T09:48:59.220Z,26.20
2018-09-01T09:51:30.673Z,26.30
2018-09-01T09:54:01.850Z,26.50
2018-09-01T09:56:33.024Z,26.80
2018-09-01T09:59:08.348Z,26.70
2018-09-01T10:01:40.365Z,26.90
2018-09-01T10:04:12.460Z,26.80
2018-09-01T10:06:43.491Z,26.90
2018-09-01T10:09:15.686Z,27.40
2018-09-01T10:11:47.215Z,26.80
2018-09-01T10:14:18.444Z,27.10
2018-09-01T10:16:49.685Z,26.90
2018-09-01T10:19:20.843Z,26.50
2018-09-01T10:21:51.873Z,26.60
2018-09-01T10:24:23.228Z,27.10
2018-09-01T10:26:54.318Z,27.70
2018-09-01T10:29:25.410Z,28.30
2018-09-01T10:31:56.613Z,28.70
2018-09-01T10:34:27.798Z,28.60
2018-09-01T10:36:59.003Z,28.00
2018-09-01T10:39:30.563Z,28.10
2018-09-01T10:42:01.804Z,27.90
2018-09-01T10:44:33.457Z,27.60
2018-09-01T10:47:04.809Z,27.90
2018-09-01T10:49:36.159Z,27.50
2018-09-01T10:52:07.561Z,27.40
2018-09-01T10:54:38.894Z,27.90
2018-09-01T10:57:10.108Z,28.00
2018-09-01T10:59:41.419Z,28.30
2018-09-01T11:02:12.494Z,28.30
2018-09-01T11:04:44.548Z,28.30
2018-09-01T11:07:15.712Z,28.20
2018-09-01T11:09:46.850Z,27.70
2018-09-01T11:12:18.338Z,28.70
2018-09-01T11:14:49.595Z,28.70
2018-09-01T11:17:20.799Z,28.90
2018-09-01T11:19:52.231Z,28.90
2018-09-01T11:22:23.545Z,28.10
2018-09-01T11:24:54.771Z,28.10
2018-09-01T11:27:25.872Z,28.30
2018-09-01T11:29:57.162Z,28.50
2018-09-01T11:32:28.377Z,28.90
2018-09-01T11:34:59.352Z,28.90
2018-09-01T11:37:30.550Z,28.70
2018-09-01T11:40:02.408Z,29.70
2018-09-01T11:42:34.067Z,29.90
2018-09-01T11:45:05.228Z,30.10
2018-09-01T11:47:36.474Z,30.10
2018-09-01T11:50:07.717Z,30.40
2018-09-01T11:52:39.066Z,30.70
2018-09-01T11:55:10.265Z,30.60
2018-09-01T11:57:41.287Z,30.00
2018-09-01T12:00:12.698Z,29.90
2018-09-01T12:02:44.506Z,29.80
2018-09-01T12:05:15.659Z,29.70
2018-09-01T12:07:46.986Z,29.00
2018-09-01T12:10:18.253Z,29.30
2018-09-01T12:12:49.635Z,29.50
2018-09-01T12:15:20.882Z,29.20
2018-09-01T12:17:51.976Z,29.30
2018-09-01T12:20:23.172Z,29.80
2018-09-01T12:22:54.533Z,30.20
2018-09-01T12:25:25.715Z,30.50
2018-09-01T12:27:56.936Z,30.80
2018-09-01T12:30:27.904Z,30.70
2018-09-01T12:32:58.942Z,31.40
2018-09-01T12:35:30.336Z,31.30
2018-09-01T12:38:01.709Z,31.40
2018-09-01T12:40:33.550Z,31.00
2018-09-01T12:43:04.928Z,30.40
2018-09-01T12:45:36.265Z,30.10
2018-09-01T12:48:07.728Z,30.10
2018-09-01T12:50:39.022Z,30.20
2018-09-01T12:53:10.255Z,30.60
2018-09-01T12:55:41.723Z,30.50
2018-09-01T12:58:13.009Z,30.10
2018-09-01T13:00:44.358Z,30.40
2018-09-01T13:03:15.592Z,30.80
2018-09-01T13:05:46.786Z,30.90
2018-09-01T13:08:17.776Z,30.90
2018-09-01T13:10:48.972Z,31.00
2018-09-01T13:13:20.268Z,30.50
2018-09-01T13:15:51.566Z,30.60
2018-09-01T13:18:22.710Z,30.60
2018-09-01T13:20:53.754Z,30.40
2018-09-01T13:23:25.727Z,30.70
2018-09-01T13:25:57.543Z,30.80
2018-09-01T13:28:28.851Z,30.80
2018-09-01T13:31:00.068Z,31.00
2018-09-01T13:33:31.080Z,31.00
2018-09-01T13:36:02.462Z,30.60
2018-09-01T13:38:34.271Z,29.90
2018-09-01T13:41:05.635Z,29.40
2018-09-01T13:43:36.902Z,29.10
2018-09-01T13:46:08.271Z,29.40
2018-09-01T13:48:39.427Z,29.40
2018-09-01T13:51:10.760Z,29.70
2018-09-01T13:53:41.800Z,29.60
2018-09-01T13:56:13.155Z,29.70
2018-09-01T13:58:44.366Z,29.40
2018-09-01T14:01:15.591Z,29.40
2018-09-01T14:03:47.298Z,29.80
2018-09-01T14:06:18.494Z,29.80
2018-09-01T14:08:49.690Z,29.50
2018-09-01T14:11:20.698Z,29.00
2018-09-01T14:13:52.040Z,29.00
2018-09-01T14:16:23.097Z,29.40
2018-09-01T14:18:54.575Z,29.70
2018-09-01T14:21:26.535Z,29.50
2018-09-01T14:23:57.846Z,29.20
2018-09-01T14:26:29.026Z,28.60
2018-09-01T14:29:00.037Z,28.90
2018-09-01T14:31:31.215Z,28.50
2018-09-01T14:34:06.180Z,28.40
2018-09-01T14:36:38.041Z,28.40
2018-09-01T14:39:11.306Z,28.50
2018-09-01T14:41:43.471Z,28.80
2018-09-01T14:44:14.721Z,28.80
2018-09-01T14:46:46.116Z,28.80
2018-09-01T14:49:17.414Z,28.70
2018-09-01T14:51:48.679Z,28.50
2018-09-01T14:54:20.016Z,28.50
2018-09-01T14:56:51.018Z,28.60
2018-09-01T14:59:22.284Z,28.40
2018-09-01T15:01:53.368Z,28.40
2018-09-01T15:04:24.383Z,28.30
2018-09-01T15:06:56.138Z,28.40
2018-09-01T15:09:27.148Z,28.40
2018-09-01T15:11:58.925Z,28.50
2018-09-01T15:14:31.382Z,28.50
2018-09-01T15:17:02.687Z,28.50
2018-09-01T15:19:33.879Z,28.60
2018-09-01T15:22:05.099Z,28.10
2018-09-01T15:24:36.115Z,28.00
2018-09-01T15:27:07.344Z,28.30
2018-09-01T15:29:38.953Z,28.10
2018-09-01T15:32:10.038Z,28.40
2018-09-01T15:34:41.050Z,28.30
2018-09-01T15:37:12.227Z,28.10
2018-09-01T15:39:43.434Z,28.20
2018-09-01T15:42:14.615Z,28.30
2018-09-01T15:44:45.830Z,28.40
2018-09-01T15:47:17.485Z,28.50
2018-09-01T15:49:48.774Z,28.20
2018-09-01T15:52:20.634Z,28.20
2018-09-01T15:54:51.946Z,28.30
2018-09-01T15:57:23.435Z,28.10
2018-09-01T15:59:54.523Z,28.10
2018-09-01T16:02:25.767Z,27.80
2018-09-01T16:04:57.092Z,27.80
2018-09-01T16:07:28.312Z,27.70
2018-09-01T16:10:00.036Z,27.70
2018-09-01T16:12:31.089Z,27.80
2018-09-01T16:15:02.318Z,27.80
2018-09-01T16:17:33.504Z,27.90
2018-09-01T16:20:04.832Z,27.90
2018-09-01T16:22:35.857Z,27.60
2018-09-01T16:25:07.517Z,27.50
2018-09-01T16:27:38.641Z,27.60
2018-09-01T16:30:09.939Z,27.80
2018-09-01T16:32:41.187Z,27.60
2018-09-01T16:35:12.399Z,27.70
2018-09-01T16:37:43.679Z,27.70
2018-09-01T16:40:15.830Z,27.70
2018-09-01T16:42:47.138Z,27.70
2018-09-01T16:45:18.466Z,27.70
2018-09-01T16:47:49.709Z,27.50
2018-09-01T16:50:20.946Z,27.60
2018-09-01T16:52:52.104Z,27.60
2018-09-01T16:55:23.293Z,27.50
2018-09-01T16:57:54.488Z,27.60
2018-09-01T17:00:25.739Z,27.40
2018-09-01T17:02:57.064Z,27.40
2018-09-01T17:05:28.277Z,27.30
2018-09-01T17:07:59.251Z,27.20
2018-09-01T17:10:30.264Z,27.20
2018-09-01T17:13:01.435Z,27.20
2018-09-01T17:15:32.646Z,27.20
2018-09-01T17:18:03.844Z,27.10
2018-09-01T17:20:34.835Z,27.10
2018-09-01T17:23:05.933Z,26.90
2018-09-01T17:25:43.511Z,26.80
2018-09-01T17:28:14.680Z,26.70
2018-09-01T17:30:45.999Z,26.60
2018-09-01T17:33:17.366Z,26.60
2018-09-01T17:35:48.663Z,26.60
2018-09-01T17:38:19.654Z,26.50
2018-09-01T17:40:50.850Z,26.40
2018-09-01T17:43:22.027Z,26.40
2018-09-01T17:45:53.035Z,26.30
2018-09-01T17:48:24.010Z,26.20
2018-09-01T17:50:55.256Z,26.10
2018-09-01T17:53:26.883Z,26.00
2018-09-01T17:55:58.303Z,25.90
2018-09-01T17:58:29.558Z,25.80
2018-09-01T18:01:00.817Z,25.70
2018-09-01T18:03:32.204Z,25.70
2018-09-01T18:06:03.374Z,25.60
2018-09-01T18:08:35.076Z,25.50
2018-09-01T18:11:06.325Z,25.40
2018-09-01T18:13:37.499Z,25.30
2018-09-01T18:16:08.946Z,25.20
2018-09-01T18:18:40.144Z,25.10
2018-09-01T18:21:11.509Z,25.10
2018-09-01T18:23:42.654Z,25.00
2018-09-01T18:26:14.315Z,24.90
2018-09-01T18:28:45.489Z,24.80
2018-09-01T18:31:17.472Z,24.70
2018-09-01T18:33:48.824Z,24.60
2018-09-01T18:36:20.216Z,24.50
2018-09-01T18:38:51.804Z,24.40
2018-09-01T18:41:23.462Z,24.40
2018-09-01T18:43:54.758Z,24.40
2018-09-01T18:46:25.957Z,24.20
2018-09-01T18:48:57.151Z,24.10
2018-09-01T18:51:28.163Z,24.00
2018-09-01T18:53:59.542Z,23.90
2018-09-01T18:56:30.805Z,23.70
2018-09-01T18:59:02.105Z,23.60
2018-09-01T19:01:33.127Z,23.60
2018-09-01T19:04:04.539Z,23.40
2018-09-01T19:06:35.852Z,23.30
2018-09-01T19:09:07.990Z,23.30
2018-09-01T19:11:39.239Z,23.30
2018-09-01T19:14:10.305Z,23.20
2018-09-01T19:16:41.423Z,23.20
2018-09-01T19:19:12.600Z,23.10
2018-09-01T19:21:43.816Z,23.10
2018-09-01T19:24:14.859Z,23.00
2018-09-01T19:26:46.314Z,22.90
2018-09-01T19:29:17.575Z,22.80
2018-09-01T19:31:48.826Z,22.60
2018-09-01T19:34:19.954Z,22.60
2018-09-01T19:36:51.395Z,22.50
2018-09-01T19:39:22.764Z,22.50
2018-09-01T19:41:53.748Z,22.40
2018-09-01T19:44:25.559Z,22.40
2018-09-01T19:46:56.958Z,22.40
2018-09-01T19:49:28.297Z,22.30
2018-09-01T19:51:59.491Z,22.30
2018-09-01T19:54:30.948Z,22.20
2018-09-01T19:57:02.412Z,22.10
2018-09-01T19:59:33.435Z,22.00
2018-09-01T20:02:04.623Z,21.90
2018-09-01T20:04:35.749Z,21.90
2018-09-01T20:07:06.879Z,21.70
2018-09-01T20:09:38.235Z,21.60
2018-09-01T20:12:10.491Z,21.50
2018-09-01T20:14:41.903Z,21.50
2018-09-01T20:17:13.156Z,21.40
2018-09-01T20:19:44.700Z,21.40
2018-09-01T20:22:15.949Z,21.30
2018-09-01T20:24:46.939Z,21.30
2018-09-01T20:27:17.989Z,21.20
2018-09-01T20:29:49.571Z,21.20
2018-09-01T20:32:20.989Z,21.20
2018-09-01T20:34:52.236Z,21.20
2018-09-01T20:37:23.568Z,21.10
2018-09-01T20:39:54.712Z,21.10
2018-09-01T20:42:26.064Z,21.10
2018-09-01T20:44:57.255Z,21.10
2018-09-01T20:47:28.267Z,21.00
2018-09-01T20:49:59.452Z,20.90
2018-09-01T20:52:30.637Z,20.80
2018-09-01T20:55:01.832Z,20.80
2018-09-01T20:57:34.380Z,20.80
2018-09-01T21:00:06.392Z,20.80
2018-09-01T21:02:37.568Z,20.80
2018-09-01T21:05:09.047Z,20.80
2018-09-01T21:07:40.488Z,20.70
2018-09-01T21:10:11.794Z,20.80
2018-09-01T21:12:42.964Z,20.90
2018-09-01T21:15:14.328Z,20.80
2018-09-01T21:17:45.527Z,20.50
2018-09-01T21:20:16.566Z,20.60
2018-09-01T21:22:47.895Z,20.80
2018-09-01T21:25:19.095Z,20.60
2018-09-01T21:27:50.251Z,20.60
2018-09-01T21:30:21.449Z,20.70
2018-09-01T21:32:52.635Z,20.70
2018-09-01T21:35:23.888Z,20.60
2018-09-01T21:37:55.227Z,20.30
2018-09-01T21:40:26.230Z,20.10
2018-09-01T21:42:57.477Z,20.00
2018-09-01T21:45:28.623Z,19.90
2018-09-01T21:47:59.802Z,20.10
2018-09-01T21:50:31.070Z,20.20
2018-09-01T21:53:02.792Z,20.20
2018-09-01T21:55:34.743Z,20.00
2018-09-01T21:58:06.091Z,19.80
2018-09-01T22:00:38.288Z,20.00
2018-09-01T22:03:09.874Z,19.80
2018-09-01T22:05:41.366Z,19.70
2018-09-01T22:08:12.733Z,19.80
2018-09-01T22:10:44.094Z,19.70
2018-09-01T22:13:15.520Z,19.50
2018-09-01T22:15:46.928Z,19.70
2018-09-01T22:18:18.243Z,19.80
2018-09-01T22:20:49.415Z,19.70
2018-09-01T22:23:20.688Z,19.70
2018-09-01T22:25:52.124Z,19.50
2018-09-01T22:28:23.397Z,19.40
2018-09-01T22:30:54.583Z,19.00
2018-09-01T22:33:26.024Z,18.90
2018-09-01T22:35:57.717Z,19.10
2018-09-01T22:38:29.237Z,19.10
2018-09-01T22:41:00.908Z,19.10
2018-09-01T22:43:32.047Z,18.90
2018-09-01T22:46:03.440Z,18.80
2018-09-01T22:48:34.811Z,19.20
2018-09-01T22:51:06.184Z,19.10
2018-09-01T22:53:37.567Z,18.70
2018-09-01T22:56:08.785Z,19.00
2018-09-01T22:58:40.444Z,18.70
2018-09-01T23:01:12.025Z,18.60
2018-09-01T23:03:43.325Z,18.50
2018-09-01T23:06:14.767Z,18.60
2018-09-01T23:08:46.135Z,18.50
2018-09-01T23:11:17.495Z,18.40
2018-09-01T23:13:49.119Z,18.30
2018-09-01T23:16:20.288Z,18.20
2018-09-01T23:18:51.459Z,18.20
2018-09-01T23:21:22.676Z,18.20
2018-09-01T23:23:54.717Z,18.20
2018-09-01T23:26:26.297Z,18.20
2018-09-01T23:28:57.582Z,18.30
2018-09-01T23:31:29.278Z,18.10
2018-09-01T23:34:00.581Z,18.00
2018-09-01T23:36:32.193Z,18.10
2018-09-01T23:39:03.721Z,18.20
2018-09-01T23:41:35.021Z,18.20
2018-09-01T23:44:06.256Z,18.40
2018-09-01T23:46:37.755Z,18.20
2018-09-01T23:49:09.308Z,18.20
2018-09-01T23:51:40.660Z,18.20
2018-09-01T23:54:11.762Z,18.10
2018-09-01T23:56:43.765Z,17.90
2018-09-01T23:59:14.983Z,18.00
